Terminal Aerodrome Forecast
Issued by NWS Rapid City, SD

Home | Current Version | Previous Version | Text Only | Print | Product List | Glossary On
Versions: 1 2 3 4 5 6 7 8 9 10 11 12 13 14 15 16 17 18 19 20
000
FTUS43 KUNR 241340 AAB
TAFRAP
TAF AMD
KRAP 241340Z 2414/2512 35018KT 2SM -SN OVC004
      TEMPO 2414/2415 1SM -SN OVC003
     FM241500 35020G30KT 3/4SM -SN BLSN OVC005
     FM241900 34023G33KT 1SM -SN BLSN OVC008
     FM242200 34020G30KT 3SM -SN BLSN OVC015
     FM250600 33015KT P6SM BKN035=

USA.gov is the U.S. government's official web portal to all federal, state and local government web resources and services.